Time;durP1;ratioP1;P1;durP2;ratioP2;P2;SDS_P1;SDS_P2;PMS_P1;PMS_P2;Temp;Humidity;BMP_temperature;BMP_pressure;BME280_temperature;BME280_humidity;BME280_pressure;Samples;Min_cycle;Max_cycle;Signal;HPM_P1;HPM_P2
2022/01/09 00:00:33;;;;;;;13.10;2.60;;;;;;;19.64;33.93;98909.94;7316797;19;132605;-62
2022/01/09 00:03:00;;;;;;;15.60;2.33;;;;;;;19.60;33.90;98915.28;7314137;19;129265;-61
2022/01/09 00:05:27;;;;;;;9.30;2.20;;;;;;;19.57;33.84;98926.97;7314965;19;128811;-62
2022/01/09 00:07:54;;;;;;;12.07;2.55;;;;;;;19.54;33.79;98927.59;7314517;19;131307;-61
2022/01/09 00:10:21;;;;;;;13.57;2.58;;;;;;;19.52;34.01;98946.50;7315538;19;133851;-62
2022/01/09 00:12:48;;;;;;;10.30;2.60;;;;;;;19.50;34.00;98948.72;7316940;19;129212;-62
2022/01/09 00:15:15;;;;;;;8.70;3.28;;;;;;;19.49;33.65;98959.00;7312902;19;129644;-62
2022/01/09 00:17:42;;;;;;;8.77;2.30;;;;;;;19.47;33.91;98971.50;7314065;19;132363;-62
2022/01/09 00:20:13;;;;;;;12.60;2.97;;;;;;;19.45;33.58;98968.22;7312906;19;133046;-62
2022/01/09 00:22:47;;;;;;;13.55;3.20;;;;;;;19.43;33.18;98965.75;7315749;19;130118;-62
2022/01/09 00:25:16;;;;;;;9.98;2.75;;;;;;;19.41;33.43;98981.03;7312356;19;128989;-62
2022/01/09 00:27:43;;;;;;;11.05;2.83;;;;;;;19.37;33.21;98983.59;7314392;19;131548;-62
2022/01/09 00:30:12;;;;;;;9.07;2.55;;;;;;;19.34;33.53;99001.63;7311979;19;131985;-61
2022/01/09 00:32:39;;;;;;;9.05;2.78;;;;;;;19.32;33.01;99003.88;7313668;19;128995;-62
2022/01/09 00:35:07;;;;;;;12.27;2.90;;;;;;;19.30;33.46;99011.69;7316691;19;131518;-61
2022/01/09 00:37:35;;;;;;;11.88;2.80;;;;;;;19.29;33.23;99020.28;7311881;19;131251;-61
2022/01/09 00:40:03;;;;;;;8.73;2.80;;;;;;;19.28;33.17;99032.50;7315580;19;131785;-61
2022/01/09 00:42:30;;;;;;;10.88;3.08;;;;;;;19.30;33.19;99028.31;7312357;19;129632;-61
2022/01/09 00:44:57;;;;;;;8.25;2.95;;;;;;;19.29;33.66;99039.69;7315469;19;131500;-62
2022/01/09 00:47:24;;;;;;;7.43;2.38;;;;;;;19.29;33.69;99037.75;7313685;19;131103;-61
2022/01/09 00:49:50;;;;;;;12.18;3.42;;;;;;;19.29;33.41;99048.84;7314769;19;132117;-63
2022/01/09 00:52:18;;;;;;;11.13;3.22;;;;;;;19.27;33.39;99042.78;7313495;19;131799;-61
2022/01/09 00:54:44;;;;;;;10.38;2.65;;;;;;;19.25;33.43;99063.59;7312593;19;129600;-61
2022/01/09 00:57:11;;;;;;;9.95;3.00;;;;;;;19.23;33.12;99061.09;7314054;19;132515;-61
2022/01/09 00:59:38;;;;;;;13.05;3.22;;;;;;;19.22;33.22;99051.97;7309157;19;131995;-61
2022/01/09 01:02:05;;;;;;;10.82;3.65;;;;;;;19.21;33.23;99058.66;7316409;19;130518;-61
2022/01/09 01:04:32;;;;;;;12.73;3.35;;;;;;;19.20;33.35;99072.78;7311498;19;128979;-61
2022/01/09 01:06:59;;;;;;;9.82;2.92;;;;;;;19.19;32.94;99076.66;7314089;19;131349;-61
2022/01/09 01:09:30;;;;;;;14.20;3.60;;;;;;;19.17;33.31;99076.13;7311154;19;131466;-61
2022/01/09 01:12:00;;;;;;;12.20;3.03;;;;;;;19.17;33.15;99093.56;7315409;19;129094;-62
2022/01/09 01:14:29;;;;;;;8.20;2.83;;;;;;;19.16;33.03;99088.34;7312185;19;132216;-61
2022/01/09 01:16:55;;;;;;;10.80;2.70;;;;;;;19.15;33.44;99092.22;7310260;19;132344;-61
2022/01/09 01:19:23;;;;;;;14.25;3.35;;;;;;;19.15;33.30;99115.22;7312548;19;131866;-61
2022/01/09 01:21:50;;;;;;;12.57;2.97;;;;;;;19.17;33.30;99114.94;7310229;19;129276;-61
2022/01/09 01:24:18;;;;;;;10.95;3.08;;;;;;;19.16;33.04;99121.59;7314850;19;130719;-61
2022/01/09 01:26:45;;;;;;;11.98;3.72;;;;;;;19.14;33.41;99134.94;7309065;19;131181;-61
2022/01/09 01:29:12;;;;;;;11.98;3.72;;;;;;;19.14;33.52;99134.94;7314458;19;130949;-61
2022/01/09 01:31:39;;;;;;;13.63;3.85;;;;;;;19.13;32.98;99141.59;7311253;19;129079;-61
2022/01/09 01:34:06;;;;;;;8.38;2.75;;;;;;;19.11;33.27;99147.44;7313230;19;128849;-61
2022/01/09 01:36:32;;;;;;;13.52;3.53;;;;;;;19.10;33.13;99161.56;7309376;19;131062;-61
2022/01/09 01:38:59;;;;;;;13.10;3.40;;;;;;;19.08;33.00;99171.00;7311578;19;132404;-61
2022/01/09 01:41:26;;;;;;;14.20;3.17;;;;;;;19.09;33.43;99177.38;7315910;19;128766;-61
2022/01/09 01:43:52;;;;;;;11.52;3.30;;;;;;;19.07;33.33;99180.47;7311470;19;130821;-61
2022/01/09 01:46:19;;;;;;;11.68;3.65;;;;;;;19.07;33.41;99191.56;7314899;19;131299;-61
2022/01/09 01:48:46;;;;;;;18.90;3.70;;;;;;;19.05;33.16;99204.88;7309521;19;131055;-61
2022/01/09 01:51:13;;;;;;;12.20;3.33;;;;;;;19.05;33.22;99212.34;7316400;19;129557;-60
2022/01/09 01:53:40;;;;;;;11.05;2.92;;;;;;;19.04;33.27;99210.69;7311783;19;130217;-61
2022/01/09 01:56:07;;;;;;;13.52;3.42;;;;;;;19.03;33.01;99223.72;7313072;19;131098;-61
2022/01/09 01:58:35;;;;;;;13.07;3.63;;;;;;;19.02;33.30;99224.84;7310512;19;130964;-60
2022/01/09 02:01:02;;;;;;;14.10;3.78;;;;;;;19.01;33.07;99237.03;7312484;19;131578;-61
2022/01/09 02:03:29;;;;;;;11.02;3.08;;;;;;;18.98;32.89;99232.06;7314475;19;128994;-61
2022/01/09 02:05:56;;;;;;;10.05;3.35;;;;;;;18.97;33.04;99241.50;7309641;19;131396;-61
2022/01/09 02:08:23;;;;;;;11.82;3.60;;;;;;;18.97;32.92;99249.81;7314227;19;131962;-61
2022/01/09 02:10:50;;;;;;;11.90;3.20;;;;;;;18.98;33.16;99253.44;7309075;19;130070;-61
2022/01/09 02:13:18;;;;;;;14.65;3.92;;;;;;;18.98;33.23;99253.44;7314274;19;128872;-61
2022/01/09 02:15:47;;;;;;;11.48;3.70;;;;;;;18.95;32.99;99252.06;7310408;19;131295;-61
2022/01/09 02:18:19;;;;;;;11.73;3.33;;;;;;;18.97;32.84;99266.44;7311537;19;131402;-61
2022/01/09 02:20:47;;;;;;;10.35;3.22;;;;;;;18.94;33.25;99278.13;7309554;19;129280;-61
2022/01/09 02:23:15;;;;;;;10.50;3.30;;;;;;;;;;7310997;19;129370;-61
2022/01/09 02:25:44;;;;;;;12.57;3.88;;;;;;;18.91;33.11;99287.00;7313538;19;132072;-61
2022/01/09 02:28:14;;;;;;;10.05;3.15;;;;;;;18.90;32.87;99288.13;7309255;19;131864;-61
2022/01/09 02:30:41;;;;;;;16.33;4.10;;;;;;;18.90;32.80;99290.88;7312680;19;128809;-61
2022/01/09 02:33:11;;;;;;;13.23;3.75;;;;;;;18.89;33.20;99294.78;7308942;19;129111;-61
2022/01/09 02:35:37;;;;;;;8.75;2.97;;;;;;;18.89;33.24;99300.31;7312356;19;131093;-61
2022/01/09 02:38:06;;;;;;;10.75;2.92;;;;;;;18.88;32.94;99309.75;7306683;19;130935;-61
2022/01/09 02:40:33;;;;;;;11.15;3.83;;;;;;;18.86;33.04;99317.50;7311815;19;128653;-61
2022/01/09 02:43:00;;;;;;;13.18;3.30;;;;;;;18.85;32.75;99319.47;7310966;19;129154;-60
2022/01/09 02:45:28;;;;;;;13.45;3.55;;;;;;;18.87;32.88;99330.25;7309659;19;132843;-61
2022/01/09 02:47:57;;;;;;;13.25;3.47;;;;;;;18.84;32.72;99331.66;7316541;19;131012;-61
2022/01/09 02:52:55;;;;;;;12.75;3.40;;;;;;;18.83;33.23;99351.34;7320226;19;129216;-61
2022/01/09 02:55:23;;;;;;;13.07;3.53;;;;;;;18.83;32.83;99351.34;7314427;19;131604;-61
2022/01/09 02:57:58;;;;;;;10.65;3.15;;;;;;;18.82;33.10;99366.31;7317570;19;131853;-61
2022/01/09 03:00:30;;;;;;;10.00;3.17;;;;;;;18.82;32.89;99380.16;7316777;19;129015;-61
2022/01/09 03:02:58;;;;;;;11.55;3.22;;;;;;;18.80;32.83;99377.66;7316964;19;130742;-61
2022/01/09 03:05:26;;;;;;;14.30;3.78;;;;;;;18.80;32.60;99385.16;7319194;19;131763;-61
2022/01/09 03:07:53;;;;;;;11.38;3.25;;;;;;;18.78;32.64;99393.75;7314837;19;131034;-61
2022/01/09 03:10:21;;;;;;;10.63;2.97;;;;;;;18.77;32.88;99394.84;7318893;19;128861;-61
2022/01/09 03:12:50;;;;;;;12.30;3.10;;;;;;;18.75;32.87;99400.69;7314752;19;137773;-62
2022/01/09 03:15:17;;;;;;;12.23;3.03;;;;;;;18.75;32.56;99406.22;7318752;19;132004;-61
2022/01/09 03:17:44;;;;;;;12.18;3.17;;;;;;;18.74;32.90;99415.66;7310749;19;130997;-61
2022/01/09 03:20:17;;;;;;;9.68;2.80;;;;;;;18.73;32.91;99425.06;7317808;19;128907;-62
2022/01/09 03:22:44;;;;;;;10.02;2.70;;;;;;;18.71;32.67;99418.97;7314028;19;131054;-61
2022/01/09 03:25:12;;;;;;;11.50;3.10;;;;;;;18.72;32.78;99422.59;7316168;19;130978;-61
2022/01/09 03:27:40;;;;;;;11.30;2.60;;;;;;;18.71;32.57;99437.56;7317423;19;131029;-61
2022/01/09 03:30:09;;;;;;;8.77;3.00;;;;;;;18.70;32.55;99445.06;7316578;19;131473;-61
2022/01/09 03:32:37;;;;;;;13.00;2.97;;;;;;;18.71;32.81;99451.41;7316790;19;128865;-61
2022/01/09 03:35:06;;;;;;;10.38;3.13;;;;;;;18.70;32.53;99450.59;7313864;19;131919;-61
2022/01/09 03:37:33;;;;;;;7.70;2.70;;;;;;;18.69;32.61;99457.25;7317101;19;131179;-61
2022/01/09 03:40:00;;;;;;;9.13;3.00;;;;;;;18.68;32.50;99455.59;7312985;19;129899;-62
2022/01/09 03:42:26;;;;;;;10.05;2.95;;;;;;;18.67;32.63;99453.91;7317330;19;129060;-61
2022/01/09 03:44:53;;;;;;;13.50;2.92;;;;;;;18.66;32.67;99468.03;7315186;19;135049;-61
2022/01/09 03:47:20;;;;;;;12.65;3.08;;;;;;;18.65;32.54;99460.84;7314657;19;132225;-62
2022/01/09 03:49:47;;;;;;;10.45;2.60;;;;;;;18.64;32.81;99465.56;7317066;19;128967;-61
2022/01/09 03:52:14;;;;;;;9.38;3.03;;;;;;;18.64;32.35;99473.88;7315864;19;129076;-61
2022/01/09 03:54:41;;;;;;;10.38;2.78;;;;;;;18.64;32.52;99473.06;7317755;19;132031;-61
2022/01/09 03:57:08;;;;;;;10.30;2.30;;;;;;;18.63;32.53;99476.94;7313819;19;131122;-61
2022/01/09 03:59:35;;;;;;;10.55;2.83;;;;;;;18.64;32.55;99493.25;7316132;19;128876;-61
2022/01/09 04:02:02;;;;;;;8.85;2.67;;;;;;;18.63;32.64;99491.59;7312721;19;129218;-61
2022/01/09 04:04:29;;;;;;;11.35;2.70;;;;;;;18.63;32.85;99499.09;7317265;19;131107;-61
2022/01/09 04:06:56;;;;;;;10.52;2.88;;;;;;;18.63;32.62;99507.41;7313825;19;131093;-61
2022/01/09 04:09:38;;;;;;;7.57;2.90;;;;;;;18.62;32.69;99514.88;7315016;19;130746;-61
2022/01/09 04:12:14;;;;;;;11.93;2.65;;;;;;;18.61;32.70;99511.28;7317491;19;128837;-61
2022/01/09 04:14:42;;;;;;;8.82;2.85;;;;;;;18.61;32.48;99525.13;7313508;19;131683;-61
2022/01/09 04:17:16;;;;;;;10.32;2.75;;;;;;;18.62;32.54;99534.25;7316650;19;131069;-61
2022/01/09 04:19:43;;;;;;;9.07;2.38;;;;;;;18.60;32.51;99533.69;7312568;19;133301;-61
2022/01/09 04:22:10;;;;;;;7.90;2.53;;;;;;;18.60;32.51;99533.69;7316251;19;130644;-61
2022/01/09 04:24:37;;;;;;;7.15;2.25;;;;;;;18.60;32.41;99539.25;7313485;19;131992;-61
2022/01/09 04:27:05;;;;;;;9.60;2.35;;;;;;;18.60;32.62;99539.25;7314059;19;131962;-61
2022/01/09 04:29:32;;;;;;;9.32;2.70;;;;;;;18.60;32.62;99547.53;7316650;19;130489;-61
2022/01/09 04:31:58;;;;;;;10.40;2.80;;;;;;;18.59;32.52;99551.44;7314126;19;131913;-61
2022/01/09 04:34:25;;;;;;;8.80;2.90;;;;;;;18.60;32.76;99564.16;7316284;19;131260;-61
2022/01/09 04:36:52;;;;;;;9.63;2.85;;;;;;;18.59;32.73;99568.03;7311873;19;131073;-61
2022/01/09 04:39:18;;;;;;;8.32;2.75;;;;;;;18.60;32.70;99564.16;7315414;19;128964;-61
2022/01/09 04:41:45;;;;;;;7.13;2.22;;;;;;;18.58;32.49;99572.75;7311622;19;128928;-61
2022/01/09 04:44:12;;;;;;;9.82;2.50;;;;;;;18.59;32.66;99587.44;7315438;19;131932;-61
2022/01/09 04:46:45;;;;;;;6.80;2.25;;;;;;;18.58;32.59;99591.34;7312265;19;131836;-61
2022/01/09 04:49:12;;;;;;;9.00;2.75;;;;;;;18.58;32.92;99588.56;7315500;19;129313;-61
2022/01/09 04:51:39;;;;;;;6.93;2.45;;;;;;;18.58;32.98;99599.66;7313351;19;130137;-60
2022/01/09 04:54:05;;;;;;;9.93;2.42;;;;;;;18.56;32.64;99599.09;7312908;19;132461;-61
2022/01/09 04:56:32;;;;;;;7.32;2.30;;;;;;;18.56;33.05;99602.69;7317491;19;131036;-61
2022/01/09 04:58:59;;;;;;;8.02;2.38;;;;;;;18.56;32.77;99599.09;7309487;19;128873;-61
2022/01/09 05:01:25;;;;;;;9.15;2.20;;;;;;;18.56;32.71;99624.00;7316463;19;129169;-61
2022/01/09 05:03:52;;;;;;;8.15;2.50;;;;;;;18.54;32.65;99621.50;7311199;19;131287;-61
2022/01/09 05:06:20;;;;;;;7.63;2.60;;;;;;;18.55;32.74;99630.66;7312678;19;132401;-61
2022/01/09 05:08:46;;;;;;;6.72;2.22;;;;;;;18.54;32.89;99631.78;7315680;19;130638;-61
2022/01/09 05:11:13;;;;;;;7.32;2.25;;;;;;;18.54;33.18;99642.84;7310647;19;129140;-62
2022/01/09 05:13:40;;;;;;;6.60;2.17;;;;;;;18.54;32.81;99637.31;7315313;19;131360;-61
2022/01/09 05:16:07;;;;;;;7.40;2.17;;;;;;;18.53;32.83;99644.75;7312641;19;132491;-61
2022/01/09 05:18:42;;;;;;;9.05;2.78;;;;;;;18.52;32.74;99651.44;7315449;19;130679;-61
2022/01/09 05:21:08;;;;;;;7.57;2.45;;;;;;;18.52;32.83;99647.81;7309579;19;130652;-61
2022/01/09 05:23:35;;;;;;;8.52;2.30;;;;;;;18.51;33.20;99677.47;7314514;19;132043;-61
2022/01/09 05:26:02;;;;;;;9.38;2.60;;;;;;;18.51;33.12;99676.63;7312945;19;131128;-61
2022/01/09 05:28:28;;;;;;;6.50;2.17;;;;;;;18.51;32.81;99687.69;7314144;19;128884;-61
2022/01/09 05:30:55;;;;;;;7.43;2.47;;;;;;;18.50;33.10;99674.97;7312507;19;129727;-61
2022/01/09 05:33:22;;;;;;;7.60;2.50;;;;;;;18.49;32.85;99684.38;7311650;19;131100;-61
2022/01/09 05:35:49;;;;;;;6.13;1.90;;;;;;;18.48;33.12;99685.47;7314815;19;132631;-61
2022/01/09 05:38:18;;;;;;;5.55;1.95;;;;;;;18.46;33.07;99678.28;7309757;19;128954;-61
2022/01/09 05:40:45;;;;;;;7.03;2.28;;;;;;;18.47;32.93;99698.50;7313959;19;128973;-61
2022/01/09 05:43:12;;;;;;;6.53;1.92;;;;;;;18.46;32.97;99692.13;7309840;19;131124;-61
2022/01/09 05:45:40;;;;;;;7.68;2.40;;;;;;;18.46;33.26;99694.06;7313303;19;131825;-61
2022/01/09 05:48:07;;;;;;;4.80;1.70;;;;;;;18.48;32.95;99699.31;7310598;19;130182;-61
2022/01/09 05:50:34;;;;;;;6.18;1.90;;;;;;;18.48;33.33;99699.31;7312842;19;131171;-61
2022/01/09 05:53:01;;;;;;;6.93;2.05;;;;;;;18.46;33.11;99692.13;7309429;19;131528;-61
2022/01/09 05:55:29;;;;;;;6.47;1.83;;;;;;;18.46;32.85;99708.72;7310083;19;131215;-61
2022/01/09 05:57:56;;;;;;;7.63;2.28;;;;;;;18.45;33.21;99701.56;7314348;19;129146;-61
2022/01/09 06:00:23;;;;;;;6.38;1.88;;;;;;;18.44;33.11;99713.75;7310408;19;131319;-61
2022/01/09 06:02:50;;;;;;;9.80;2.40;;;;;;;18.45;33.03;99707.09;7313515;19;131648;-61
2022/01/09 06:05:17;;;;;;;7.60;2.58;;;;;;;18.43;33.29;99708.47;7308884;19;131076;-61
2022/01/09 06:07:44;;;;;;;8.10;2.00;;;;;;;18.43;33.26;99708.47;7313443;19;131478;-63
2022/01/09 06:10:11;;;;;;;6.45;2.08;;;;;;;18.42;32.85;99710.41;7310181;19;129057;-61
2022/01/09 06:12:38;;;;;;;6.57;2.20;;;;;;;18.41;33.27;99713.44;7311169;19;131387;-61
2022/01/09 06:15:06;;;;;;;7.38;1.98;;;;;;;18.41;33.12;99710.66;7310049;19;132421;-61
2022/01/09 06:17:37;;;;;;;5.20;2.13;;;;;;;18.41;33.41;99716.22;7310458;19;128853;-61
2022/01/09 06:20:05;;;;;;;7.00;2.00;;;;;;;18.41;33.35;99721.75;7312497;19;128820;-61
2022/01/09 06:22:32;;;;;;;7.57;1.90;;;;;;;18.40;33.14;99723.69;7308701;19;131998;-61
2022/01/09 06:24:59;;;;;;;7.45;1.98;;;;;;;18.40;33.21;99736.72;7312248;19;131828;-61
2022/01/09 06:27:26;;;;;;;7.72;1.88;;;;;;;18.40;33.36;99742.25;7309469;19;128910;-61
2022/01/09 06:29:53;;;;;;;6.20;2.20;;;;;;;18.38;33.31;99739.72;7313416;19;131457;-61
2022/01/09 06:32:19;;;;;;;6.47;2.10;;;;;;;18.38;33.24;99750.78;7309932;19;131462;-61
2022/01/09 06:34:46;;;;;;;5.05;1.92;;;;;;;18.38;33.47;99752.75;7311170;19;131117;-61
2022/01/09 06:37:13;;;;;;;6.03;1.95;;;;;;;18.37;33.32;99754.66;7308114;19;129505;-61
2022/01/09 06:39:40;;;;;;;5.30;1.73;;;;;;;18.37;33.51;99760.19;7307981;19;129008;-61
2022/01/09 06:42:07;;;;;;;5.78;1.80;;;;;;;18.37;33.26;99759.38;7312892;19;132801;-62
2022/01/09 06:44:34;;;;;;;6.38;1.77;;;;;;;18.37;33.54;99768.50;7308793;19;130951;-61
2022/01/09 06:47:01;;;;;;;6.38;1.92;;;;;;;18.36;33.13;99763.25;7311859;19;129510;-61
2022/01/09 06:49:28;;;;;;;5.80;1.67;;;;;;;18.36;33.17;99764.06;7307803;19;129053;-61
2022/01/09 06:51:55;;;;;;;6.50;2.25;;;;;;;18.36;33.59;99769.59;7311795;19;131717;-61
2022/01/09 06:54:21;;;;;;;7.00;1.63;;;;;;;18.36;33.53;99768.78;7310021;19;131043;-61
2022/01/09 06:56:48;;;;;;;4.70;1.73;;;;;;;18.35;33.12;99770.72;7311723;19;128739;-61
2022/01/09 06:59:15;;;;;;;7.03;1.80;;;;;;;18.34;33.66;99776.53;7309269;19;129479;-61
2022/01/09 07:01:42;;;;;;;7.13;2.03;;;;;;;18.34;33.17;99787.59;7309961;19;131755;-61
2022/01/09 07:04:08;;;;;;;6.82;2.40;;;;;;;18.34;33.32;99782.88;7308887;19;130965;-61
2022/01/09 07:06:35;;;;;;;6.43;2.17;;;;;;;18.35;33.70;99780.97;7308654;19;131426;-62
2022/01/09 07:09:03;;;;;;;5.95;1.65;;;;;;;18.39;33.50;99791.25;7311718;19;129262;-61
2022/01/09 07:11:30;;;;;;;4.78;1.50;;;;;;;18.45;33.38;99795.72;7307247;19;132104;-61
2022/01/09 07:13:57;;;;;;;3.53;1.50;;;;;;;18.55;33.27;99791.31;7311501;19;131018;-61
2022/01/09 07:16:24;;;;;;;6.07;1.80;;;;;;;18.68;33.64;99793.56;7305965;19;128862;-61
2022/01/09 07:18:50;;;;;;;4.60;1.67;;;;;;;18.84;33.07;99785.22;7310797;19;131728;-61
2022/01/09 07:21:17;;;;;;;5.50;2.10;;;;;;;19.06;32.96;99809.94;7308049;19;131141;-61
2022/01/09 07:23:44;;;;;;;2.88;1.25;;;;;;;19.27;32.72;99799.69;7309497;19;131259;-61
2022/01/09 07:26:11;;;;;;;5.35;1.60;;;;;;;19.49;32.74;99801.34;7307565;19;128879;-61
2022/01/09 07:28:37;;;;;;;4.15;1.48;;;;;;;19.71;32.25;99797.41;7310211;19;134051;-61
2022/01/09 07:31:04;;;;;;;5.65;1.85;;;;;;;19.92;32.25;99812.91;7308783;19;131753;-61
2022/01/09 07:33:32;;;;;;;5.70;1.75;;;;;;;20.09;31.78;99811.75;7310565;19;131484;-60
2022/01/09 07:35:59;;;;;;;7.05;1.60;;;;;;;20.22;31.56;99818.66;7318594;19;129589;-61
2022/01/09 07:38:26;;;;;;;10.75;1.98;;;;;;;20.35;31.75;99828.31;7313287;19;130389;-60
2022/01/09 07:40:52;;;;;;;8.55;1.90;;;;;;;20.43;31.49;99830.53;7316450;19;131411;-61
2022/01/09 07:43:20;;;;;;;9.50;1.95;;;;;;;20.48;31.11;99838.00;7314328;19;132097;-61
2022/01/09 07:45:47;;;;;;;6.20;1.98;;;;;;;20.53;30.88;99843.50;7315901;19;132387;-60
2022/01/09 07:48:14;;;;;;;19.70;2.17;;;;;;;20.55;31.09;99844.91;7318305;19;128699;-60
2022/01/09 07:50:41;;;;;;;8.20;2.13;;;;;;;20.60;31.09;99849.59;7314459;19;131665;-61
2022/01/09 07:53:07;;;;;;;7.53;1.90;;;;;;;20.62;31.23;99854.84;7319161;19;131617;-60
2022/01/09 07:55:34;;;;;;;7.72;2.08;;;;;;;20.62;30.82;99855.69;7313165;19;129269;-61
2022/01/09 07:58:01;;;;;;;9.20;2.50;;;;;;;20.62;31.27;99855.69;7317767;19;129032;-60
2022/01/09 08:00:27;;;;;;;5.70;1.98;;;;;;;20.60;31.34;99864.31;7315830;19;132492;-60
2022/01/09 08:02:54;;;;;;;6.43;1.80;;;;;;;20.57;31.44;99870.44;7316502;19;131163;-61
2022/01/09 08:05:21;;;;;;;7.72;1.83;;;;;;;20.53;31.54;99871.28;7314191;19;129092;-61
2022/01/09 08:07:50;;;;;;;6.82;2.00;;;;;;;20.49;31.21;99871.03;7312042;19;128908;-60
2022/01/09 08:10:17;;;;;;;5.20;1.75;;;;;;;20.44;31.68;99880.22;7317868;19;131111;-60
2022/01/09 08:12:44;;;;;;;6.22;1.88;;;;;;;20.38;32.00;99880.53;7311906;19;131014;-60
2022/01/09 08:15:11;;;;;;;6.95;2.08;;;;;;;20.32;32.04;99884.44;7316017;19;128896;-61
2022/01/09 08:17:41;;;;;;;4.03;1.70;;;;;;;20.27;32.54;99882.50;7312196;19;130492;-60
2022/01/09 08:20:08;;;;;;;21.17;2.35;;;;;;;20.21;32.49;99895.56;7314247;19;131926;-60
2022/01/09 08:22:36;;;;;;;9.27;2.00;;;;;;;20.16;32.42;99900.31;7308971;19;131455;-60
2022/01/09 08:25:05;;;;;;;7.13;2.30;;;;;;;20.10;32.48;99905.03;7312489;19;129250;-61
2022/01/09 08:27:32;;;;;;;8.32;1.98;;;;;;;20.04;32.37;99908.97;7311371;19;130825;-61
2022/01/09 08:29:59;;;;;;;6.75;2.15;;;;;;;19.98;32.50;99914.47;7312178;19;131073;-61
2022/01/09 08:32:25;;;;;;;6.30;1.95;;;;;;;19.96;32.56;99915.88;7317114;19;132686;-61
2022/01/09 08:34:53;;;;;;;14.60;2.42;;;;;;;19.93;32.91;99919.22;7312319;19;129761;-62
2022/01/09 08:37:22;;;;;;;13.20;2.40;;;;;;;19.91;32.98;99913.94;7315839;19;129216;-62
2022/01/09 08:39:52;;;;;;;8.90;1.77;;;;;;;19.91;33.12;99924.22;7313733;19;130324;-61
2022/01/09 08:42:20;;;;;;;10.27;1.98;;;;;;;19.92;33.26;99929.50;7313749;19;129906;-62
2022/01/09 08:44:48;;;;;;;11.95;2.13;;;;;;;19.91;32.98;99930.59;7316366;19;130212;-62
2022/01/09 08:47:17;;;;;;;12.05;2.25;;;;;;;19.92;33.13;99937.81;7313044;19;129041;-61
2022/01/09 08:49:46;;;;;;;12.32;2.25;;;;;;;19.94;32.74;99935.56;7312294;19;130309;-61
2022/01/09 08:52:12;;;;;;;9.00;1.95;;;;;;;19.96;32.82;99927.81;7314575;19;132021;-61
2022/01/09 08:54:39;;;;;;;8.02;2.00;;;;;;;20.01;32.49;99945.59;7312636;19;129010;-61
2022/01/09 08:57:07;;;;;;;6.07;2.08;;;;;;;20.05;32.85;99939.22;7316157;19;128966;-61
2022/01/09 08:59:34;;;;;;;9.05;1.75;;;;;;;20.12;32.41;99947.25;7312112;19;134606;-61
2022/01/09 09:02:02;;;;;;;11.15;1.90;;;;;;;20.19;32.21;99933.91;7313633;19;130969;-62
2022/01/09 09:04:29;;;;;;;8.10;2.22;;;;;;;20.24;32.05;99944.19;7311146;19;131251;-61
2022/01/09 09:06:58;;;;;;;11.00;2.03;;;;;;;20.31;31.40;99944.72;7313565;19;129120;-62
2022/01/09 09:09:24;;;;;;;11.77;1.65;;;;;;;20.38;31.22;99955.53;7315670;19;131616;-61
2022/01/09 09:11:51;;;;;;;10.20;2.45;;;;;;;20.44;31.07;99959.94;7312901;19;131042;-61
2022/01/09 09:14:22;;;;;;;11.73;2.30;;;;;;;20.51;30.74;99968.84;7315468;19;128847;-61
2022/01/09 09:16:48;;;;;;;6.68;1.88;;;;;;;20.56;31.03;99974.34;7310219;19;130071;-61
2022/01/09 09:19:15;;;;;;;11.40;1.95;;;;;;;20.64;30.66;99969.34;7316456;19;131280;-61
2022/01/09 09:21:43;;;;;;;9.48;2.10;;;;;;;20.70;30.35;99974.59;7311783;19;131389;-61
2022/01/09 09:24:10;;;;;;;6.35;2.05;;;;;;;20.77;30.32;99979.91;7314904;19;132668;-61
2022/01/09 09:26:37;;;;;;;5.30;1.80;;;;;;;20.85;30.28;99973.72;7312556;19;130500;-62
2022/01/09 09:29:05;;;;;;;9.45;1.77;;;;;;;20.93;29.84;99991.78;7313549;19;131910;-62
2022/01/09 09:31:32;;;;;;;7.43;2.00;;;;;;;21.02;29.97;99997.59;7312895;19;131166;-61
2022/01/09 09:33:59;;;;;;;6.60;2.13;;;;;;;21.08;29.90;99996.41;7312030;19;129961;-62
2022/01/09 09:36:27;;;;;;;7.45;1.85;;;;;;;21.12;30.10;99994.75;7315100;19;130409;-61
2022/01/09 09:38:54;;;;;;;6.63;1.83;;;;;;;21.17;29.87;100005.00;7310879;19;131862;-62
2022/01/09 09:41:25;;;;;;;5.57;1.63;;;;;;;21.21;29.48;99995.78;7312697;19;132259;-61
2022/01/09 09:43:52;;;;;;;7.15;1.92;;;;;;;21.26;29.58;100003.28;7308984;19;128853;-62
2022/01/09 09:46:23;;;;;;;6.00;1.60;;;;;;;21.32;28.95;100006.84;7314761;19;129080;-61
2022/01/09 09:48:51;;;;;;;4.03;1.35;;;;;;;21.36;29.09;100007.97;7313359;19;134835;-61
2022/01/09 09:51:18;;;;;;;10.80;2.25;;;;;;;21.40;29.16;100009.06;7309664;19;132170;-62
2022/01/09 09:53:45;;;;;;;12.55;2.30;;;;;;;21.46;28.80;100012.63;7314466;19;130626;-61
2022/01/09 09:56:12;;;;;;;7.30;1.98;;;;;;;21.52;28.81;100017.06;7308966;19;131333;-61
2022/01/09 09:58:41;;;;;;;11.13;2.20;;;;;;;21.54;28.64;100017.63;7312976;19;132622;-62
2022/01/09 10:01:41;;;;;;;12.43;2.28;;;;;;;21.56;28.79;100020.09;7308750;19;131434;-63
2022/01/09 10:04:09;;;;;;;11.43;2.10;;;;;;;21.54;28.54;100019.59;7313297;19;128968;-62
2022/01/09 10:06:44;;;;;;;7.40;2.42;;;;;;;21.54;28.72;100027.94;7310560;19;130548;-61
2022/01/09 10:09:16;;;;;;;10.20;2.53;;;;;;;21.50;28.61;100030.44;7311620;19;132021;-63
2022/01/09 10:11:50;;;;;;;8.02;2.35;;;;;;;21.47;28.48;100023.47;7313860;19;131183;-62
2022/01/09 10:14:26;;;;;;;10.07;2.50;;;;;;;21.39;28.25;100034.38;7310181;19;131013;-62
2022/01/09 10:17:19;;;;;;;7.30;2.30;;;;;;;21.32;28.01;100024.41;7315141;19;129130;-61
2022/01/09 10:20:24;;;;;;;10.02;2.10;;;;;;;21.24;28.63;100024.16;7309649;19;131207;-61
2022/01/09 10:22:55;;;;;;;9.05;2.33;;;;;;;21.20;28.28;100015.56;7309574;19;131977;-61
2022/01/09 10:25:21;;;;;;;5.72;1.80;;;;;;;21.25;28.88;100025.81;7311425;19;130171;-61
2022/01/09 10:28:00;;;;;;;10.00;2.13;;;;;;;21.32;28.97;100031.91;7308898;19;128988;-61
2022/01/09 10:30:41;;;;;;;9.75;2.40;;;;;;;21.41;28.70;100030.19;7313189;19;131281;-61
2022/01/09 10:33:14;;;;;;;11.45;2.70;;;;;;;21.49;29.20;100035.19;7308712;19;131163;-61
2022/01/09 10:35:43;;;;;;;9.93;2.17;;;;;;;21.57;29.05;100038.47;7309837;19;129272;-62
2022/01/09 10:38:13;;;;;;;8.98;2.20;;;;;;;21.61;29.45;100043.16;7311497;19;130048;-61
2022/01/09 10:40:43;;;;;;;7.53;1.90;;;;;;;21.64;29.53;100047.34;7309911;19;131173;-61
2022/01/09 10:43:13;;;;;;;10.25;2.70;;;;;;;21.65;29.48;100062.94;7313875;19;131018;-61
2022/01/09 10:46:00;;;;;;;11.30;2.00;;;;;;;21.66;29.81;100045.94;7308467;19;131476;-62
2022/01/09 10:48:37;;;;;;;8.57;1.90;;;;;;;21.67;30.08;100052.31;7312689;19;128908;-62
2022/01/09 10:51:05;;;;;;;8.20;2.10;;;;;;;21.67;30.45;100052.31;7308556;19;132087;-61
2022/01/09 10:53:38;;;;;;;8.80;2.20;;;;;;;21.66;30.46;100048.72;7308682;19;131046;-61
2022/01/09 10:56:10;;;;;;;9.02;2.65;;;;;;;21.68;30.94;100051.19;7311009;19;129160;-61
2022/01/09 10:58:49;;;;;;;7.95;2.15;;;;;;;21.66;31.32;100054.28;7299401;19;129993;-62
2022/01/09 11:01:33;;;;;;;10.02;1.90;;;;;;;21.67;31.61;100055.09;7308210;19;133267;-62
2022/01/09 11:04:04;;;;;;;8.57;1.98;;;;;;;21.66;31.71;100054.28;7307416;19;131793;-62
2022/01/09 11:06:34;;;;;;;6.47;1.88;;;;;;;21.66;31.56;100061.81;7308733;19;130745;-62
2022/01/09 11:09:04;;;;;;;8.32;2.22;;;;;;;21.67;31.44;100067.06;7317720;19;129856;-62
2022/01/09 11:11:36;;;;;;;9.70;2.20;;;;;;;21.67;31.92;100069.00;7315398;19;132639;-62
2022/01/09 11:14:07;;;;;;;8.68;1.90;;;;;;;21.67;31.98;100066.22;7316836;19;131791;-62
2022/01/09 11:16:35;;;;;;;9.43;1.90;;;;;;;21.67;31.98;100050.38;7315549;19;130076;-62
2022/01/09 11:19:06;;;;;;;8.02;2.33;;;;;;;21.70;31.91;100062.06;7316357;19;129542;-61
2022/01/09 11:21:33;;;;;;;8.85;1.73;;;;;;;21.67;32.15;100064.28;7317843;19;132527;-63
2022/01/09 11:24:22;;;;;;;7.25;1.80;;;;;;;21.69;32.13;100077.91;7315110;19;130894;-62
2022/01/09 11:27:16;;;;;;;5.05;1.85;;;;;;;21.65;31.84;100071.28;7319270;19;131879;-62
2022/01/09 11:29:45;;;;;;;8.13;1.70;;;;;;;21.63;31.98;100065.16;7293970;19;132700;-62